sensor_id;sensor_type;location;lat;lon;timestamp;P1;durP1;ratioP1;P2;durP2;ratioP2
23496;SDS011;11925;48.122;11.560;2022-07-30T00:00:27;3.78;;;1.55;;
23496;SDS011;11925;48.122;11.560;2022-07-30T00:02:55;3.25;;;1.55;;
23496;SDS011;11925;48.122;11.560;2022-07-30T00:05:24;3.05;;;1.58;;
23496;SDS011;11925;48.122;11.560;2022-07-30T00:07:53;3.72;;;1.88;;
23496;SDS011;11925;48.122;11.560;2022-07-30T00:10:21;2.97;;;1.50;;
23496;SDS011;11925;48.122;11.560;2022-07-30T00:12:50;3.40;;;1.48;;
23496;SDS011;11925;48.122;11.560;2022-07-30T00:15:19;2.10;;;1.25;;
23496;SDS011;11925;48.122;11.560;2022-07-30T00:17:49;2.83;;;1.50;;
23496;SDS011;11925;48.122;11.560;2022-07-30T00:20:17;2.30;;;1.45;;
23496;SDS011;11925;48.122;11.560;2022-07-30T00:22:46;1.85;;;1.35;;
23496;SDS011;11925;48.122;11.560;2022-07-30T00:25:16;1.92;;;1.35;;
23496;SDS011;11925;48.122;11.560;2022-07-30T00:27:45;5.38;;;1.75;;
23496;SDS011;11925;48.122;11.560;2022-07-30T00:30:13;1.83;;;1.30;;
23496;SDS011;11925;48.122;11.560;2022-07-30T00:32:42;2.47;;;1.50;;
23496;SDS011;11925;48.122;11.560;2022-07-30T00:35:13;2.00;;;1.50;;
23496;SDS011;11925;48.122;11.560;2022-07-30T00:40:12;2.95;;;1.30;;
23496;SDS011;11925;48.122;11.560;2022-07-30T00:42:42;3.92;;;1.40;;
23496;SDS011;11925;48.122;11.560;2022-07-30T00:45:11;1.90;;;1.45;;
23496;SDS011;11925;48.122;11.560;2022-07-30T00:47:40;2.15;;;1.45;;
23496;SDS011;11925;48.122;11.560;2022-07-30T00:50:09;2.75;;;1.38;;
23496;SDS011;11925;48.122;11.560;2022-07-30T00:52:40;2.00;;;1.38;;
23496;SDS011;11925;48.122;11.560;2022-07-30T00:55:10;2.63;;;1.50;;
23496;SDS011;11925;48.122;11.560;2022-07-30T00:57:39;2.00;;;1.40;;
23496;SDS011;11925;48.122;11.560;2022-07-30T01:00:09;3.03;;;1.63;;
23496;SDS011;11925;48.122;11.560;2022-07-30T01:02:38;3.35;;;1.50;;
23496;SDS011;11925;48.122;11.560;2022-07-30T01:05:07;2.70;;;1.30;;
23496;SDS011;11925;48.122;11.560;2022-07-30T01:07:36;1.75;;;1.30;;
23496;SDS011;11925;48.122;11.560;2022-07-30T01:10:07;2.97;;;1.30;;
23496;SDS011;11925;48.122;11.560;2022-07-30T01:12:36;3.13;;;1.50;;
23496;SDS011;11925;48.122;11.560;2022-07-30T01:15:05;2.20;;;1.60;;
23496;SDS011;11925;48.122;11.560;2022-07-30T01:17:35;3.42;;;1.60;;
23496;SDS011;11925;48.122;11.560;2022-07-30T01:20:05;2.33;;;1.70;;
23496;SDS011;11925;48.122;11.560;2022-07-30T01:22:44;3.38;;;1.75;;
23496;SDS011;11925;48.122;11.560;2022-07-30T01:27:59;1.83;;;1.48;;
23496;SDS011;11925;48.122;11.560;2022-07-30T01:30:30;2.17;;;1.48;;
23496;SDS011;11925;48.122;11.560;2022-07-30T01:33:00;3.00;;;1.60;;
23496;SDS011;11925;48.122;11.560;2022-07-30T01:35:31;1.63;;;1.52;;
23496;SDS011;11925;48.122;11.560;2022-07-30T01:38:00;2.47;;;1.50;;
23496;SDS011;11925;48.122;11.560;2022-07-30T01:40:30;4.13;;;1.70;;
23496;SDS011;11925;48.122;11.560;2022-07-30T01:43:01;1.73;;;1.23;;
23496;SDS011;11925;48.122;11.560;2022-07-30T01:45:33;1.70;;;1.27;;
23496;SDS011;11925;48.122;11.560;2022-07-30T01:48:11;3.28;;;1.58;;
23496;SDS011;11925;48.122;11.560;2022-07-30T01:50:41;2.60;;;1.40;;
23496;SDS011;11925;48.122;11.560;2022-07-30T01:53:13;2.78;;;1.70;;
23496;SDS011;11925;48.122;11.560;2022-07-30T01:55:42;2.33;;;1.80;;
23496;SDS011;11925;48.122;11.560;2022-07-30T01:58:13;3.47;;;1.55;;
23496;SDS011;11925;48.122;11.560;2022-07-30T02:00:44;3.10;;;1.92;;
23496;SDS011;11925;48.122;11.560;2022-07-30T02:03:14;2.22;;;1.58;;
23496;SDS011;11925;48.122;11.560;2022-07-30T02:05:44;2.55;;;1.88;;
23496;SDS011;11925;48.122;11.560;2022-07-30T02:08:16;4.05;;;1.88;;
23496;SDS011;11925;48.122;11.560;2022-07-30T02:10:50;2.60;;;1.65;;
23496;SDS011;11925;48.122;11.560;2022-07-30T02:13:21;2.77;;;1.87;;
23496;SDS011;11925;48.122;11.560;2022-07-30T02:15:51;2.78;;;1.98;;
23496;SDS011;11925;48.122;11.560;2022-07-30T02:18:24;3.17;;;2.08;;
23496;SDS011;11925;48.122;11.560;2022-07-30T02:20:57;3.88;;;2.05;;
23496;SDS011;11925;48.122;11.560;2022-07-30T02:23:34;3.05;;;2.10;;
23496;SDS011;11925;48.122;11.560;2022-07-30T02:26:03;3.50;;;1.92;;
23496;SDS011;11925;48.122;11.560;2022-07-30T02:28:39;3.25;;;2.10;;
23496;SDS011;11925;48.122;11.560;2022-07-30T02:33:43;2.63;;;1.88;;
23496;SDS011;11925;48.122;11.560;2022-07-30T02:36:15;2.10;;;1.70;;
23496;SDS011;11925;48.122;11.560;2022-07-30T02:38:45;3.08;;;2.00;;
23496;SDS011;11925;48.122;11.560;2022-07-30T02:41:18;3.13;;;2.10;;
23496;SDS011;11925;48.122;11.560;2022-07-30T02:43:49;4.30;;;2.10;;
23496;SDS011;11925;48.122;11.560;2022-07-30T02:46:22;2.75;;;2.03;;
23496;SDS011;11925;48.122;11.560;2022-07-30T02:49:29;3.45;;;2.40;;
23496;SDS011;11925;48.122;11.560;2022-07-30T02:51:59;3.85;;;2.00;;
23496;SDS011;11925;48.122;11.560;2022-07-30T02:54:29;4.78;;;2.20;;
23496;SDS011;11925;48.122;11.560;2022-07-30T02:56:58;3.63;;;2.33;;
23496;SDS011;11925;48.122;11.560;2022-07-30T02:59:29;2.80;;;2.50;;
23496;SDS011;11925;48.122;11.560;2022-07-30T03:04:29;3.70;;;2.38;;
23496;SDS011;11925;48.122;11.560;2022-07-30T03:06:58;3.45;;;2.25;;
23496;SDS011;11925;48.122;11.560;2022-07-30T03:09:34;3.53;;;2.50;;
23496;SDS011;11925;48.122;11.560;2022-07-30T03:12:18;4.07;;;2.55;;
23496;SDS011;11925;48.122;11.560;2022-07-30T03:14:51;2.97;;;2.67;;
23496;SDS011;11925;48.122;11.560;2022-07-30T03:17:20;3.42;;;2.40;;
23496;SDS011;11925;48.122;11.560;2022-07-30T03:19:49;3.95;;;2.53;;
23496;SDS011;11925;48.122;11.560;2022-07-30T03:22:20;2.72;;;2.42;;
23496;SDS011;11925;48.122;11.560;2022-07-30T03:24:49;3.20;;;2.90;;
23496;SDS011;11925;48.122;11.560;2022-07-30T03:27:19;4.15;;;3.42;;
23496;SDS011;11925;48.122;11.560;2022-07-30T03:29:51;4.57;;;3.00;;
23496;SDS011;11925;48.122;11.560;2022-07-30T03:32:21;4.72;;;3.30;;
23496;SDS011;11925;48.122;11.560;2022-07-30T03:34:51;3.65;;;2.72;;
23496;SDS011;11925;48.122;11.560;2022-07-30T03:37:22;4.32;;;2.70;;
23496;SDS011;11925;48.122;11.560;2022-07-30T03:39:52;3.67;;;2.90;;
23496;SDS011;11925;48.122;11.560;2022-07-30T03:42:21;3.17;;;2.83;;
23496;SDS011;11925;48.122;11.560;2022-07-30T03:44:51;3.83;;;2.72;;
23496;SDS011;11925;48.122;11.560;2022-07-30T03:49:51;4.93;;;3.05;;
23496;SDS011;11925;48.122;11.560;2022-07-30T03:52:19;5.90;;;2.95;;
23496;SDS011;11925;48.122;11.560;2022-07-30T03:54:48;3.97;;;2.83;;
23496;SDS011;11925;48.122;11.560;2022-07-30T03:57:46;4.05;;;2.95;;
23496;SDS011;11925;48.122;11.560;2022-07-30T04:00:19;4.28;;;3.30;;
23496;SDS011;11925;48.122;11.560;2022-07-30T04:02:50;4.07;;;3.50;;
23496;SDS011;11925;48.122;11.560;2022-07-30T04:05:45;5.00;;;3.10;;
23496;SDS011;11925;48.122;11.560;2022-07-30T04:08:14;4.40;;;3.08;;
23496;SDS011;11925;48.122;11.560;2022-07-30T04:10:44;4.43;;;2.90;;
23496;SDS011;11925;48.122;11.560;2022-07-30T04:13:31;3.97;;;2.70;;
23496;SDS011;11925;48.122;11.560;2022-07-30T04:16:03;4.55;;;3.28;;
23496;SDS011;11925;48.122;11.560;2022-07-30T04:18:53;4.75;;;3.08;;
23496;SDS011;11925;48.122;11.560;2022-07-30T04:21:23;4.95;;;3.35;;
23496;SDS011;11925;48.122;11.560;2022-07-30T04:23:53;3.40;;;2.88;;
23496;SDS011;11925;48.122;11.560;2022-07-30T04:26:31;4.22;;;2.83;;
23496;SDS011;11925;48.122;11.560;2022-07-30T04:29:01;5.22;;;2.72;;
23496;SDS011;11925;48.122;11.560;2022-07-30T04:31:33;3.20;;;2.90;;
23496;SDS011;11925;48.122;11.560;2022-07-30T04:34:26;4.82;;;3.47;;
23496;SDS011;11925;48.122;11.560;2022-07-30T04:36:55;3.97;;;3.00;;
23496;SDS011;11925;48.122;11.560;2022-07-30T04:39:27;4.10;;;3.33;;
23496;SDS011;11925;48.122;11.560;2022-07-30T04:41:56;5.63;;;3.40;;
23496;SDS011;11925;48.122;11.560;2022-07-30T04:44:31;4.13;;;3.30;;
23496;SDS011;11925;48.122;11.560;2022-07-30T04:47:33;4.13;;;3.42;;
23496;SDS011;11925;48.122;11.560;2022-07-30T04:50:35;5.40;;;3.25;;
23496;SDS011;11925;48.122;11.560;2022-07-30T04:53:08;3.60;;;3.03;;
23496;SDS011;11925;48.122;11.560;2022-07-30T04:55:43;4.00;;;2.85;;
23496;SDS011;11925;48.122;11.560;2022-07-30T04:58:14;4.68;;;3.55;;
23496;SDS011;11925;48.122;11.560;2022-07-30T05:00:44;5.07;;;3.10;;
23496;SDS011;11925;48.122;11.560;2022-07-30T05:03:16;4.05;;;3.17;;
23496;SDS011;11925;48.122;11.560;2022-07-30T05:05:51;4.55;;;3.35;;
23496;SDS011;11925;48.122;11.560;2022-07-30T05:08:24;4.07;;;2.90;;
23496;SDS011;11925;48.122;11.560;2022-07-30T05:10:55;4.05;;;2.88;;
23496;SDS011;11925;48.122;11.560;2022-07-30T05:13:24;4.57;;;3.05;;
23496;SDS011;11925;48.122;11.560;2022-07-30T05:16:02;5.00;;;3.05;;
23496;SDS011;11925;48.122;11.560;2022-07-30T05:18:32;3.47;;;2.85;;
23496;SDS011;11925;48.122;11.560;2022-07-30T05:21:00;3.45;;;2.90;;
23496;SDS011;11925;48.122;11.560;2022-07-30T05:23:34;4.35;;;3.42;;
23496;SDS011;11925;48.122;11.560;2022-07-30T05:26:27;4.28;;;3.13;;
23496;SDS011;11925;48.122;11.560;2022-07-30T05:28:56;4.50;;;3.00;;
23496;SDS011;11925;48.122;11.560;2022-07-30T05:31:34;3.67;;;3.33;;
23496;SDS011;11925;48.122;11.560;2022-07-30T05:34:06;3.90;;;2.88;;
23496;SDS011;11925;48.122;11.560;2022-07-30T05:36:41;4.32;;;3.45;;
23496;SDS011;11925;48.122;11.560;2022-07-30T05:39:13;4.82;;;3.90;;
23496;SDS011;11925;48.122;11.560;2022-07-30T05:41:51;3.72;;;3.20;;
23496;SDS011;11925;48.122;11.560;2022-07-30T05:44:24;5.03;;;3.80;;
23496;SDS011;11925;48.122;11.560;2022-07-30T05:46:53;5.20;;;3.75;;
23496;SDS011;11925;48.122;11.560;2022-07-30T05:49:24;5.90;;;2.40;;
23496;SDS011;11925;48.122;11.560;2022-07-30T05:52:01;5.78;;;3.55;;
23496;SDS011;11925;48.122;11.560;2022-07-30T05:54:31;4.90;;;3.20;;
23496;SDS011;11925;48.122;11.560;2022-07-30T05:57:29;4.90;;;3.40;;
23496;SDS011;11925;48.122;11.560;2022-07-30T05:59:59;3.60;;;2.92;;
23496;SDS011;11925;48.122;11.560;2022-07-30T06:02:41;3.50;;;2.92;;
23496;SDS011;11925;48.122;11.560;2022-07-30T06:05:27;3.75;;;3.20;;
23496;SDS011;11925;48.122;11.560;2022-07-30T06:08:00;5.65;;;3.40;;
23496;SDS011;11925;48.122;11.560;2022-07-30T06:10:29;4.82;;;3.40;;
23496;SDS011;11925;48.122;11.560;2022-07-30T06:12:58;5.63;;;3.50;;
23496;SDS011;11925;48.122;11.560;2022-07-30T06:15:27;5.70;;;3.20;;
23496;SDS011;11925;48.122;11.560;2022-07-30T06:17:56;4.95;;;3.10;;
23496;SDS011;11925;48.122;11.560;2022-07-30T06:23:30;4.28;;;3.65;;
23496;SDS011;11925;48.122;11.560;2022-07-30T06:26:04;3.97;;;3.47;;
23496;SDS011;11925;48.122;11.560;2022-07-30T06:28:33;4.22;;;3.53;;
23496;SDS011;11925;48.122;11.560;2022-07-30T06:31:12;4.75;;;3.42;;
23496;SDS011;11925;48.122;11.560;2022-07-30T06:33:41;4.88;;;3.88;;
23496;SDS011;11925;48.122;11.560;2022-07-30T06:36:10;4.72;;;3.70;;
23496;SDS011;11925;48.122;11.560;2022-07-30T06:39:02;8.63;;;3.85;;
23496;SDS011;11925;48.122;11.560;2022-07-30T06:41:56;4.40;;;3.70;;
23496;SDS011;11925;48.122;11.560;2022-07-30T06:47:05;5.30;;;3.95;;
23496;SDS011;11925;48.122;11.560;2022-07-30T06:49:37;6.43;;;4.28;;
23496;SDS011;11925;48.122;11.560;2022-07-30T06:52:08;5.80;;;3.90;;
23496;SDS011;11925;48.122;11.560;2022-07-30T06:54:48;6.28;;;3.90;;
23496;SDS011;11925;48.122;11.560;2022-07-30T06:57:39;8.35;;;4.20;;
23496;SDS011;11925;48.122;11.560;2022-07-30T07:00:28;5.28;;;4.10;;
23496;SDS011;11925;48.122;11.560;2022-07-30T07:03:02;5.18;;;4.20;;
23496;SDS011;11925;48.122;11.560;2022-07-30T07:05:37;7.35;;;5.03;;
23496;SDS011;11925;48.122;11.560;2022-07-30T07:08:06;6.30;;;4.30;;
23496;SDS011;11925;48.122;11.560;2022-07-30T07:10:40;6.57;;;4.30;;
23496;SDS011;11925;48.122;11.560;2022-07-30T07:13:23;7.60;;;4.63;;
23496;SDS011;11925;48.122;11.560;2022-07-30T07:15:52;7.32;;;4.55;;
23496;SDS011;11925;48.122;11.560;2022-07-30T07:18:23;7.80;;;5.47;;
23496;SDS011;11925;48.122;11.560;2022-07-30T07:20:57;7.20;;;5.40;;
23496;SDS011;11925;48.122;11.560;2022-07-30T07:23:27;8.35;;;5.60;;
23496;SDS011;11925;48.122;11.560;2022-07-30T07:26:25;8.90;;;6.05;;
23496;SDS011;11925;48.122;11.560;2022-07-30T07:28:53;6.80;;;6.00;;
23496;SDS011;11925;48.122;11.560;2022-07-30T07:31:22;5.95;;;5.25;;
23496;SDS011;11925;48.122;11.560;2022-07-30T07:34:12;6.38;;;5.28;;
23496;SDS011;11925;48.122;11.560;2022-07-30T07:36:42;7.63;;;6.00;;
23496;SDS011;11925;48.122;11.560;2022-07-30T07:39:11;7.88;;;6.25;;
23496;SDS011;11925;48.122;11.560;2022-07-30T07:41:44;7.63;;;5.73;;
23496;SDS011;11925;48.122;11.560;2022-07-30T07:44:16;10.90;;;6.22;;
23496;SDS011;11925;48.122;11.560;2022-07-30T07:46:45;8.35;;;5.97;;
23496;SDS011;11925;48.122;11.560;2022-07-30T07:49:14;8.02;;;5.90;;
23496;SDS011;11925;48.122;11.560;2022-07-30T07:51:47;9.45;;;6.65;;
23496;SDS011;11925;48.122;11.560;2022-07-30T07:54:18;10.90;;;6.30;;
23496;SDS011;11925;48.122;11.560;2022-07-30T07:56:51;9.82;;;6.65;;
23496;SDS011;11925;48.122;11.560;2022-07-30T07:59:38;9.82;;;6.45;;
23496;SDS011;11925;48.122;11.560;2022-07-30T08:02:13;11.10;;;6.85;;
23496;SDS011;11925;48.122;11.560;2022-07-30T08:04:51;12.80;;;6.70;;
23496;SDS011;11925;48.122;11.560;2022-07-30T08:07:43;7.75;;;5.97;;
23496;SDS011;11925;48.122;11.560;2022-07-30T08:10:40;9.07;;;6.28;;
23496;SDS011;11925;48.122;11.560;2022-07-30T08:13:19;9.75;;;6.63;;
23496;SDS011;11925;48.122;11.560;2022-07-30T08:16:28;9.00;;;5.75;;
23496;SDS011;11925;48.122;11.560;2022-07-30T08:19:06;7.75;;;6.38;;
23496;SDS011;11925;48.122;11.560;2022-07-30T08:21:52;6.47;;;5.75;;
23496;SDS011;11925;48.122;11.560;2022-07-30T08:24:21;6.55;;;5.25;;
23496;SDS011;11925;48.122;11.560;2022-07-30T08:26:50;9.13;;;5.80;;
23496;SDS011;11925;48.122;11.560;2022-07-30T08:29:20;8.40;;;6.05;;
23496;SDS011;11925;48.122;11.560;2022-07-30T08:31:49;7.22;;;5.20;;
23496;SDS011;11925;48.122;11.560;2022-07-30T08:36:51;6.55;;;5.45;;
23496;SDS011;11925;48.122;11.560;2022-07-30T08:39:20;6.85;;;5.20;;
23496;SDS011;11925;48.122;11.560;2022-07-30T08:41:49;9.32;;;5.22;;
23496;SDS011;11925;48.122;11.560;2022-07-30T08:44:18;6.70;;;5.07;;
23496;SDS011;11925;48.122;11.560;2022-07-30T08:46:51;6.70;;;4.88;;
23496;SDS011;11925;48.122;11.560;2022-07-30T08:49:47;7.95;;;5.18;;
23496;SDS011;11925;48.122;11.560;2022-07-30T08:52:21;6.70;;;4.80;;
23496;SDS011;11925;48.122;11.560;2022-07-30T08:54:59;5.95;;;4.60;;
23496;SDS011;11925;48.122;11.560;2022-07-30T08:57:28;9.98;;;5.40;;
23496;SDS011;11925;48.122;11.560;2022-07-30T08:59:57;7.78;;;4.35;;
23496;SDS011;11925;48.122;11.560;2022-07-30T09:02:30;6.68;;;5.07;;
23496;SDS011;11925;48.122;11.560;2022-07-30T09:05:03;7.43;;;4.43;;
23496;SDS011;11925;48.122;11.560;2022-07-30T09:07:32;8.27;;;4.30;;
23496;SDS011;11925;48.122;11.560;2022-07-30T09:10:02;7.43;;;4.47;;
23496;SDS011;11925;48.122;11.560;2022-07-30T09:12:33;6.07;;;4.32;;
23496;SDS011;11925;48.122;11.560;2022-07-30T09:15:04;5.68;;;4.47;;
23496;SDS011;11925;48.122;11.560;2022-07-30T09:20:31;6.13;;;4.05;;
23496;SDS011;11925;48.122;11.560;2022-07-30T09:23:05;7.10;;;4.50;;
23496;SDS011;11925;48.122;11.560;2022-07-30T09:26:00;7.88;;;5.28;;
23496;SDS011;11925;48.122;11.560;2022-07-30T09:28:47;8.02;;;4.70;;
23496;SDS011;11925;48.122;11.560;2022-07-30T09:31:51;5.90;;;4.35;;
23496;SDS011;11925;48.122;11.560;2022-07-30T09:34:40;6.53;;;4.47;;
23496;SDS011;11925;48.122;11.560;2022-07-30T09:37:42;7.15;;;4.10;;
23496;SDS011;11925;48.122;11.560;2022-07-30T09:40:30;4.90;;;4.20;;
23496;SDS011;11925;48.122;11.560;2022-07-30T09:43:27;4.68;;;3.70;;
23496;SDS011;11925;48.122;11.560;2022-07-30T09:46:09;6.60;;;3.90;;
23496;SDS011;11925;48.122;11.560;2022-07-30T09:48:38;6.25;;;3.95;;
23496;SDS011;11925;48.122;11.560;2022-07-30T09:51:07;5.22;;;3.58;;
23496;SDS011;11925;48.122;11.560;2022-07-30T09:53:55;7.53;;;4.00;;
23496;SDS011;11925;48.122;11.560;2022-07-30T09:56:28;6.13;;;4.35;;
23496;SDS011;11925;48.122;11.560;2022-07-30T09:58:58;8.23;;;4.13;;
23496;SDS011;11925;48.122;11.560;2022-07-30T10:01:27;3.80;;;3.30;;
23496;SDS011;11925;48.122;11.560;2022-07-30T10:04:38;6.77;;;3.87;;
23496;SDS011;11925;48.122;11.560;2022-07-30T10:07:16;5.53;;;3.80;;
23496;SDS011;11925;48.122;11.560;2022-07-30T10:09:57;6.90;;;3.67;;
23496;SDS011;11925;48.122;11.560;2022-07-30T10:12:29;7.70;;;3.97;;
23496;SDS011;11925;48.122;11.560;2022-07-30T10:15:00;5.22;;;3.80;;
23496;SDS011;11925;48.122;11.560;2022-07-30T10:17:32;6.47;;;3.17;;
23496;SDS011;11925;48.122;11.560;2022-07-30T10:20:21;4.88;;;3.78;;
23496;SDS011;11925;48.122;11.560;2022-07-30T10:23:09;4.57;;;3.78;;
23496;SDS011;11925;48.122;11.560;2022-07-30T10:26:16;4.55;;;3.78;;
23496;SDS011;11925;48.122;11.560;2022-07-30T10:29:14;5.15;;;3.35;;
23496;SDS011;11925;48.122;11.560;2022-07-30T10:31:44;4.20;;;3.10;;
23496;SDS011;11925;48.122;11.560;2022-07-30T10:34:20;5.15;;;3.08;;
23496;SDS011;11925;48.122;11.560;2022-07-30T10:36:53;6.50;;;3.38;;
23496;SDS011;11925;48.122;11.560;2022-07-30T10:39:24;4.47;;;3.30;;
23496;SDS011;11925;48.122;11.560;2022-07-30T10:42:04;6.82;;;3.15;;
23496;SDS011;11925;48.122;11.560;2022-07-30T10:44:48;4.03;;;3.30;;
23496;SDS011;11925;48.122;11.560;2022-07-30T10:47:29;5.50;;;3.28;;
23496;SDS011;11925;48.122;11.560;2022-07-30T10:50:11;4.68;;;3.05;;
23496;SDS011;11925;48.122;11.560;2022-07-30T10:52:42;5.15;;;3.05;;
23496;SDS011;11925;48.122;11.560;2022-07-30T10:55:12;4.13;;;3.00;;
23496;SDS011;11925;48.122;11.560;2022-07-30T10:57:58;5.45;;;3.45;;
23496;SDS011;11925;48.122;11.560;2022-07-30T11:00:31;5.55;;;2.72;;
23496;SDS011;11925;48.122;11.560;2022-07-30T11:03:10;5.97;;;2.75;;
23496;SDS011;11925;48.122;11.560;2022-07-30T11:05:48;5.53;;;3.15;;
23496;SDS011;11925;48.122;11.560;2022-07-30T11:08:27;4.28;;;2.72;;
23496;SDS011;11925;48.122;11.560;2022-07-30T11:11:02;4.78;;;3.20;;
23496;SDS011;11925;48.122;11.560;2022-07-30T11:13:50;4.22;;;2.50;;
23496;SDS011;11925;48.122;11.560;2022-07-30T11:16:20;4.72;;;2.85;;
23496;SDS011;11925;48.122;11.560;2022-07-30T11:19:03;5.28;;;2.83;;
23496;SDS011;11925;48.122;11.560;2022-07-30T11:24:43;3.90;;;3.13;;
23496;SDS011;11925;48.122;11.560;2022-07-30T11:27:27;7.00;;;3.20;;
23496;SDS011;11925;48.122;11.560;2022-07-30T11:30:03;5.40;;;2.47;;
23496;SDS011;11925;48.122;11.560;2022-07-30T11:32:33;5.10;;;2.80;;
23496;SDS011;11925;48.122;11.560;2022-07-30T11:35:15;3.00;;;2.63;;
23496;SDS011;11925;48.122;11.560;2022-07-30T11:37:59;3.67;;;2.67;;
23496;SDS011;11925;48.122;11.560;2022-07-30T11:40:30;3.85;;;2.85;;
23496;SDS011;11925;48.122;11.560;2022-07-30T11:43:15;3.42;;;2.70;;
23496;SDS011;11925;48.122;11.560;2022-07-30T11:45:47;3.83;;;2.30;;
23496;SDS011;11925;48.122;11.560;2022-07-30T11:48:16;4.40;;;2.70;;
23496;SDS011;11925;48.122;11.560;2022-07-30T11:50:46;6.82;;;2.67;;
23496;SDS011;11925;48.122;11.560;2022-07-30T11:53:16;5.07;;;3.00;;
23496;SDS011;11925;48.122;11.560;2022-07-30T11:55:49;5.65;;;2.90;;
23496;SDS011;11925;48.122;11.560;2022-07-30T11:58:22;5.15;;;2.80;;
23496;SDS011;11925;48.122;11.560;2022-07-30T12:00:52;6.60;;;2.90;;
23496;SDS011;11925;48.122;11.560;2022-07-30T12:03:22;3.67;;;2.70;;
23496;SDS011;11925;48.122;11.560;2022-07-30T12:05:55;4.75;;;2.95;;
23496;SDS011;11925;48.122;11.560;2022-07-30T12:08:23;4.97;;;2.90;;
23496;SDS011;11925;48.122;11.560;2022-07-30T12:11:01;4.55;;;3.30;;
23496;SDS011;11925;48.122;11.560;2022-07-30T12:13:30;4.47;;;2.92;;
23496;SDS011;11925;48.122;11.560;2022-07-30T12:16:13;5.72;;;3.33;;
23496;SDS011;11925;48.122;11.560;2022-07-30T12:18:44;6.22;;;2.90;;
23496;SDS011;11925;48.122;11.560;2022-07-30T12:21:13;3.72;;;2.60;;
23496;SDS011;11925;48.122;11.560;2022-07-30T12:23:42;3.53;;;2.83;;
23496;SDS011;11925;48.122;11.560;2022-07-30T12:26:21;3.45;;;2.30;;
23496;SDS011;11925;48.122;11.560;2022-07-30T12:28:52;3.17;;;2.28;;
23496;SDS011;11925;48.122;11.560;2022-07-30T12:31:22;4.18;;;2.90;;
23496;SDS011;11925;48.122;11.560;2022-07-30T12:33:51;4.88;;;2.10;;
23496;SDS011;11925;48.122;11.560;2022-07-30T12:36:25;2.90;;;2.05;;
23496;SDS011;11925;48.122;11.560;2022-07-30T12:38:54;4.60;;;2.40;;
23496;SDS011;11925;48.122;11.560;2022-07-30T12:41:34;4.15;;;2.10;;
23496;SDS011;11925;48.122;11.560;2022-07-30T12:44:07;3.63;;;2.08;;
23496;SDS011;11925;48.122;11.560;2022-07-30T12:46:38;5.18;;;2.22;;
23496;SDS011;11925;48.122;11.560;2022-07-30T12:49:07;2.40;;;1.90;;
23496;SDS011;11925;48.122;11.560;2022-07-30T12:51:51;3.58;;;2.28;;
23496;SDS011;11925;48.122;11.560;2022-07-30T12:54:26;5.75;;;1.83;;
23496;SDS011;11925;48.122;11.560;2022-07-30T12:56:56;2.45;;;1.98;;
23496;SDS011;11925;48.122;11.560;2022-07-30T12:59:26;3.28;;;1.88;;
23496;SDS011;11925;48.122;11.560;2022-07-30T13:01:57;4.05;;;2.13;;
23496;SDS011;11925;48.122;11.560;2022-07-30T13:04:26;2.40;;;1.90;;
23496;SDS011;11925;48.122;11.560;2022-07-30T13:07:03;3.63;;;2.33;;
23496;SDS011;11925;48.122;11.560;2022-07-30T13:09:32;4.60;;;2.00;;
23496;SDS011;11925;48.122;11.560;2022-07-30T13:12:01;2.08;;;1.85;;
23496;SDS011;11925;48.122;11.560;2022-07-30T13:14:29;3.20;;;2.00;;
23496;SDS011;11925;48.122;11.560;2022-07-30T13:16:59;3.75;;;1.90;;
23496;SDS011;11925;48.122;11.560;2022-07-30T13:19:30;4.88;;;2.28;;
23496;SDS011;11925;48.122;11.560;2022-07-30T13:21:58;3.83;;;2.10;;
23496;SDS011;11925;48.122;11.560;2022-07-30T13:24:27;3.42;;;2.30;;
23496;SDS011;11925;48.122;11.560;2022-07-30T13:26:56;4.75;;;2.30;;
23496;SDS011;11925;48.122;11.560;2022-07-30T13:29:24;3.25;;;2.03;;
23496;SDS011;11925;48.122;11.560;2022-07-30T13:31:53;2.78;;;2.10;;
23496;SDS011;11925;48.122;11.560;2022-07-30T13:34:23;5.22;;;2.30;;
23496;SDS011;11925;48.122;11.560;2022-07-30T13:36:52;4.03;;;2.10;;
23496;SDS011;11925;48.122;11.560;2022-07-30T13:39:20;3.78;;;2.35;;
23496;SDS011;11925;48.122;11.560;2022-07-30T13:41:49;3.17;;;2.40;;
23496;SDS011;11925;48.122;11.560;2022-07-30T13:44:18;4.20;;;2.40;;
23496;SDS011;11925;48.122;11.560;2022-07-30T13:46:46;3.17;;;2.25;;
23496;SDS011;11925;48.122;11.560;2022-07-30T13:49:15;4.70;;;2.63;;
23496;SDS011;11925;48.122;11.560;2022-07-30T13:51:45;3.25;;;2.67;;
23496;SDS011;11925;48.122;11.560;2022-07-30T13:54:14;3.55;;;2.55;;
23496;SDS011;11925;48.122;11.560;2022-07-30T13:56:43;3.53;;;2.28;;
23496;SDS011;11925;48.122;11.560;2022-07-30T13:59:12;2.85;;;2.20;;
23496;SDS011;11925;48.122;11.560;2022-07-30T14:01:41;4.85;;;2.42;;
23496;SDS011;11925;48.122;11.560;2022-07-30T14:04:10;4.68;;;2.53;;
23496;SDS011;11925;48.122;11.560;2022-07-30T14:06:39;3.38;;;2.33;;
23496;SDS011;11925;48.122;11.560;2022-07-30T14:09:09;3.47;;;2.30;;
23496;SDS011;11925;48.122;11.560;2022-07-30T14:11:37;4.68;;;2.05;;
23496;SDS011;11925;48.122;11.560;2022-07-30T14:14:06;3.08;;;2.20;;
23496;SDS011;11925;48.122;11.560;2022-07-30T14:16:35;3.53;;;2.67;;
23496;SDS011;11925;48.122;11.560;2022-07-30T14:19:11;2.80;;;2.30;;
23496;SDS011;11925;48.122;11.560;2022-07-30T14:21:49;5.68;;;2.20;;
23496;SDS011;11925;48.122;11.560;2022-07-30T14:24:20;4.57;;;2.00;;
23496;SDS011;11925;48.122;11.560;2022-07-30T14:26:49;3.47;;;1.85;;
23496;SDS011;11925;48.122;11.560;2022-07-30T14:29:24;2.10;;;1.90;;
23496;SDS011;11925;48.122;11.560;2022-07-30T14:31:53;3.25;;;2.20;;
23496;SDS011;11925;48.122;11.560;2022-07-30T14:34:21;4.43;;;2.30;;
23496;SDS011;11925;48.122;11.560;2022-07-30T14:36:49;3.85;;;2.30;;
23496;SDS011;11925;48.122;11.560;2022-07-30T14:39:19;6.07;;;2.35;;
23496;SDS011;11925;48.122;11.560;2022-07-30T14:41:48;3.85;;;2.35;;
23496;SDS011;11925;48.122;11.560;2022-07-30T14:44:21;2.72;;;2.38;;
23496;SDS011;11925;48.122;11.560;2022-07-30T14:46:49;2.58;;;2.10;;
23496;SDS011;11925;48.122;11.560;2022-07-30T14:49:18;5.60;;;2.30;;
23496;SDS011;11925;48.122;11.560;2022-07-30T14:51:49;4.20;;;2.22;;
23496;SDS011;11925;48.122;11.560;2022-07-30T14:54:17;3.72;;;2.30;;
23496;SDS011;11925;48.122;11.560;2022-07-30T14:56:47;3.17;;;1.95;;
23496;SDS011;11925;48.122;11.560;2022-07-30T14:59:21;2.88;;;2.20;;
23496;SDS011;11925;48.122;11.560;2022-07-30T15:01:50;2.42;;;2.00;;
23496;SDS011;11925;48.122;11.560;2022-07-30T15:04:18;3.55;;;1.98;;
23496;SDS011;11925;48.122;11.560;2022-07-30T15:06:51;2.55;;;2.20;;
23496;SDS011;11925;48.122;11.560;2022-07-30T15:12:02;2.65;;;2.28;;
23496;SDS011;11925;48.122;11.560;2022-07-30T15:14:50;3.50;;;2.30;;
23496;SDS011;11925;48.122;11.560;2022-07-30T15:17:19;5.45;;;2.00;;
23496;SDS011;11925;48.122;11.560;2022-07-30T15:19:47;4.32;;;2.30;;
23496;SDS011;11925;48.122;11.560;2022-07-30T15:22:17;2.80;;;2.17;;
23496;SDS011;11925;48.122;11.560;2022-07-30T15:24:46;3.30;;;2.25;;
23496;SDS011;11925;48.122;11.560;2022-07-30T15:27:16;2.72;;;2.00;;
23496;SDS011;11925;48.122;11.560;2022-07-30T15:29:53;2.65;;;2.25;;
23496;SDS011;11925;48.122;11.560;2022-07-30T15:32:21;3.00;;;2.50;;
23496;SDS011;11925;48.122;11.560;2022-07-30T15:34:50;3.42;;;2.20;;
23496;SDS011;11925;48.122;11.560;2022-07-30T15:37:18;3.20;;;2.17;;
23496;SDS011;11925;48.122;11.560;2022-07-30T15:39:46;4.07;;;2.40;;
23496;SDS011;11925;48.122;11.560;2022-07-30T15:42:16;3.72;;;2.25;;